Time;durP1;ratioP1;P1;durP2;ratioP2;P2;SDS_P1;SDS_P2;PMS_P1;PMS_P2;Temp;Humidity;BMP_temperature;BMP_pressure;BME280_temperature;BME280_humidity;BME280_pressure;Samples;Min_cycle;Max_cycle;Signal;HPM_P1;HPM_P2
2022/01/21 00:01:00;;;;;;;7.50;3.20;;;3.90;94.90;;;;;;5062147;28;20559;-46
2022/01/21 00:03:27;;;;;;;6.90;3.20;;;3.90;94.80;;;;;;5068253;28;20522;-47
2022/01/21 00:05:54;;;;;;;9.87;4.37;;;3.90;94.90;;;;;;5082518;27;20489;-46
2022/01/21 00:08:21;;;;;;;42.57;9.37;;;;;;;;;;5056299;27;20474;-47
2022/01/21 00:10:48;;;;;;;195.37;18.07;;;;;;;;;;5074868;27;21100;-46
2022/01/21 00:13:20;;;;;;;253.00;21.57;;;;;;;;;;5091326;27;20478;-46
2022/01/21 00:15:47;;;;;;;228.03;21.53;;;;;;;;;;5067027;28;20481;-46
2022/01/21 00:18:15;;;;;;;166.60;18.03;;;3.80;95.10;;;;;;5070989;28;21719;-46
2022/01/21 00:31:41;;;;;;;19.20;7.10;;;3.80;95.30;;;;;;5060744;28;20517;-47
2022/01/21 00:34:09;;;;;;;142.83;15.57;;;;;;;;;;5055078;28;20548;-47
2022/01/21 00:36:36;;;;;;;174.17;20.90;;;;;;;;;;5061966;28;20482;-46
2022/01/21 00:39:04;;;;;;;123.43;15.63;;;;;;;;;;5058492;28;20483;-46
2022/01/21 00:41:35;;;;;;;227.63;25.13;;;;;;;;;;5051920;28;20500;-46
2022/01/21 00:44:02;;;;;;;130.70;15.80;;;;;;;;;;5056686;28;20591;-46
2022/01/21 00:46:29;;;;;;;260.03;26.03;;;;;;;;;;5054238;28;23205;-47
2022/01/21 00:48:57;;;;;;;109.07;13.20;;;;;;;;;;5047219;28;21112;-46
2022/01/21 00:51:25;;;;;;;151.23;18.40;;;;;;;;;;5048195;28;20548;-47
2022/01/21 00:53:52;;;;;;;17.63;6.30;;;3.10;96.20;;;;;;5055268;28;20892;-46
2022/01/21 00:56:19;;;;;;;93.70;13.70;;;;;;;;;;5054160;28;20485;-46
2022/01/21 00:58:46;;;;;;;109.47;14.57;;;;;;;;;;5058289;28;20491;-47
2022/01/21 01:01:13;;;;;;;58.07;12.97;;;;;;;;;;5080051;28;21377;-46
2022/01/21 01:03:39;;;;;;;24.83;7.30;;;3.40;95.90;;;;;;5062283;28;20594;-46
2022/01/21 01:06:06;;;;;;;11.00;4.60;;;3.30;96.00;;;;;;5093532;27;21719;-46
2022/01/21 01:08:34;;;;;;;7.07;4.53;;;3.40;95.90;;;;;;5071771;28;20540;-46
2022/01/21 01:11:19;;;;;;;10.73;3.63;;;3.40;95.60;;;;;;5078379;28;20496;-46
2022/01/21 01:22:04;;;;;;;6.83;3.00;;;3.60;95.70;;;;;;5078986;28;20580;-51
2022/01/21 01:30:02;;;;;;;13.80;3.63;;;3.50;95.50;;;;;;5068267;28;20549;-46
2022/01/21 01:32:30;;;;;;;4.47;2.87;;;3.50;95.70;;;;;;5084553;27;20485;-46
2022/01/21 01:34:57;;;;;;;8.07;4.20;;;3.50;95.60;;;;;;5077428;28;20476;-46
2022/01/21 01:37:36;;;;;;;15.60;3.57;;;3.60;95.50;;;;;;5086146;28;20725;-46
2022/01/21 01:40:17;;;;;;;9.20;3.40;;;3.60;95.60;;;;;;5077426;28;20493;-46
2022/01/21 01:51:12;;;;;;;7.17;4.03;;;3.40;95.40;;;;;;5073399;28;20476;-46
2022/01/21 01:53:42;;;;;;;15.10;4.00;;;3.50;95.50;;;;;;5082320;28;20482;-46
2022/01/21 01:56:13;;;;;;;9.80;4.03;;;3.40;95.40;;;;;;5080556;28;20479;-46
2022/01/21 01:58:42;;;;;;;11.10;4.13;;;3.40;95.60;;;;;;5075928;28;20546;-46
2022/01/21 02:01:09;;;;;;;11.80;2.93;;;3.50;95.70;;;;;;5086367;28;20490;-45
2022/01/21 02:03:36;;;;;;;16.20;4.43;;;3.50;95.70;;;;;;5083993;28;20547;-46
2022/01/21 02:06:04;;;;;;;11.60;3.10;;;3.50;95.60;;;;;;5082364;28;20491;-46
2022/01/21 02:08:31;;;;;;;6.10;2.70;;;3.50;95.50;;;;;;5081530;28;20494;-46
2022/01/21 02:10:58;;;;;;;17.30;3.13;;;3.50;95.30;;;;;;5081239;28;20561;-46
2022/01/21 02:13:27;;;;;;;13.47;3.80;;;3.50;95.30;;;;;;5076311;28;20482;-46
2022/01/21 02:15:59;;;;;;;8.00;4.10;;;3.40;95.20;;;;;;5087374;28;20488;-46
2022/01/21 02:21:35;;;;;;;8.03;2.70;;;3.40;95.20;;;;;;5083380;28;20500;-47
2022/01/21 02:24:05;;;;;;;13.00;5.50;;;3.30;95.40;;;;;;5081076;28;20990;-46
2022/01/21 02:26:32;;;;;;;6.53;4.20;;;;;;;;;;5082450;28;20960;-46
2022/01/21 02:29:01;;;;;;;8.67;4.63;;;3.30;95.30;;;;;;5082651;28;20543;-47
2022/01/21 02:31:28;;;;;;;20.50;11.90;;;3.30;95.30;;;;;;5081968;28;20585;-47
2022/01/21 02:33:55;;;;;;;35.87;8.63;;;3.30;95.40;;;;;;5079047;28;20486;-48
2022/01/21 02:36:23;;;;;;;199.97;20.13;;;;;;;;;;5085695;28;20471;-46
2022/01/21 02:38:50;;;;;;;59.90;10.83;;;;;;;;;;5067758;27;21128;-46
2022/01/21 02:41:17;;;;;;;167.67;16.87;;;;;;;;;;5101264;27;21201;-46
2022/01/21 02:43:44;;;;;;;181.13;16.87;;;;;;;;;;5077432;28;20486;-46
2022/01/21 02:46:14;;;;;;;70.53;10.27;;;;;;;;;;5086713;28;20540;-46
2022/01/21 02:48:41;;;;;;;64.93;8.60;;;;;;;;;;5085650;28;20486;-46
2022/01/21 02:51:09;;;;;;;132.40;13.30;;;;;;;;;;5081929;28;20485;-46
2022/01/21 02:54:03;;;;;;;275.83;25.30;;;;;;;;;;5079884;28;20979;-46
2022/01/21 02:56:27;;;;;;;240.43;23.40;;;;;;;;;;5094009;27;20469;-46
2022/01/21 02:58:54;;;;;;;127.20;15.00;;;;;;;;;;5073331;28;20729;-46
2022/01/21 03:01:21;;;;;;;39.87;9.57;;;3.10;95.80;;;;;;5083182;28;20480;-46
2022/01/21 03:03:48;;;;;;;14.60;5.93;;;3.20;95.90;;;;;;5069454;28;20558;-46
2022/01/21 03:06:16;;;;;;;91.97;10.67;;;;;;;;;;5094080;28;20476;-47
2022/01/21 03:08:45;;;;;;;30.43;6.27;;;3.20;95.50;;;;;;5081122;28;20477;-46
2022/01/21 03:11:12;;;;;;;14.70;6.70;;;3.20;95.70;;;;;;5069073;28;20490;-46
2022/01/21 03:13:40;;;;;;;13.33;4.90;;;3.20;95.60;;;;;;5066411;28;20481;-46
2022/01/21 03:16:07;;;;;;;18.23;7.27;;;3.30;95.70;;;;;;5076897;28;20482;-46
2022/01/21 03:18:34;;;;;;;5.80;3.90;;;3.30;95.70;;;;;;5094241;28;20475;-46
2022/01/21 03:21:01;;;;;;;8.53;3.17;;;3.30;95.50;;;;;;5071891;28;20508;-46
2022/01/21 03:23:29;;;;;;;11.40;3.00;;;3.40;95.60;;;;;;5088041;28;21103;-46
2022/01/21 03:25:57;;;;;;;6.63;3.20;;;3.40;95.30;;;;;;5080960;28;20629;-47
2022/01/21 03:28:24;;;;;;;8.77;3.60;;;3.40;95.50;;;;;;5081565;28;20471;-46
2022/01/21 03:30:55;;;;;;;16.10;4.00;;;3.50;95.30;;;;;;5078973;28;20473;-46
2022/01/21 03:33:22;;;;;;;17.60;4.17;;;3.50;95.50;;;;;;5086883;27;20489;-45
2022/01/21 03:35:50;;;;;;;14.37;4.53;;;3.40;95.50;;;;;;5099776;27;20484;-46
2022/01/21 03:38:18;;;;;;;12.23;3.77;;;3.50;95.50;;;;;;5093907;27;20489;-46
2022/01/21 03:40:45;;;;;;;7.70;3.43;;;3.60;95.50;;;;;;5069216;28;20491;-46
2022/01/21 03:43:14;;;;;;;8.33;2.80;;;3.60;95.40;;;;;;5081679;28;21406;-46
2022/01/21 03:45:40;;;;;;;6.23;3.63;;;3.70;95.30;;;;;;5075660;28;20482;-46
2022/01/21 03:48:07;;;;;;;15.33;3.50;;;3.70;95.10;;;;;;5079561;28;20536;-46
2022/01/21 03:50:34;;;;;;;14.27;3.33;;;3.60;95.10;;;;;;5071947;28;20517;-47
2022/01/21 03:53:02;;;;;;;8.30;3.20;;;3.60;95.00;;;;;;5086493;28;20535;-46
2022/01/21 03:55:30;;;;;;;17.43;4.03;;;3.50;95.10;;;;;;5077757;28;20532;-46
2022/01/21 03:57:57;;;;;;;6.43;3.10;;;3.50;95.00;;;;;;5077607;28;20471;-46
2022/01/21 04:00:26;;;;;;;18.57;4.30;;;;;;;;;;5074695;28;20531;-46
2022/01/21 04:02:53;;;;;;;17.90;4.23;;;3.40;94.90;;;;;;5067455;28;20528;-46
2022/01/21 04:05:20;;;;;;;10.83;3.30;;;3.30;95.00;;;;;;5086458;28;20557;-48
2022/01/21 04:07:48;;;;;;;9.07;3.10;;;3.20;95.00;;;;;;5070142;28;20492;-46
2022/01/21 04:10:15;;;;;;;5.20;2.10;;;3.20;95.10;;;;;;5086072;28;21124;-46
2022/01/21 04:12:42;;;;;;;9.53;3.23;;;3.10;95.00;;;;;;5073500;28;21101;-46
2022/01/21 04:15:09;;;;;;;12.40;3.07;;;3.10;95.10;;;;;;5076369;28;20882;-45
2022/01/21 04:17:37;;;;;;;7.53;3.77;;;3.10;94.90;;;;;;5084272;28;20475;-46
2022/01/21 04:20:06;;;;;;;6.13;2.83;;;3.10;95.00;;;;;;5073132;28;20531;-46
2022/01/21 04:22:33;;;;;;;8.33;4.97;;;3.00;94.80;;;;;;5076154;28;20490;-46
2022/01/21 04:25:00;;;;;;;7.97;3.47;;;3.00;94.90;;;;;;5072098;28;20534;-46
2022/01/21 04:27:28;;;;;;;18.37;3.73;;;3.00;94.90;;;;;;5091003;28;20523;-46
2022/01/21 04:29:54;;;;;;;14.07;3.17;;;2.90;95.10;;;;;;5073526;28;21002;-46
2022/01/21 04:32:21;;;;;;;9.03;3.87;;;2.90;95.30;;;;;;5087464;28;20483;-46
2022/01/21 04:34:50;;;;;;;13.00;3.53;;;2.90;95.10;;;;;;5079054;28;20479;-46
2022/01/21 04:37:17;;;;;;;5.87;3.77;;;2.80;95.00;;;;;;5078953;28;21349;-46
2022/01/21 04:39:50;;;;;;;6.97;2.80;;;2.70;95.20;;;;;;5072124;28;20598;-46
2022/01/21 04:47:45;;;;;;;13.50;3.13;;;2.70;95.50;;;;;;5102068;27;20846;-47
2022/01/21 04:50:14;;;;;;;8.00;3.97;;;2.80;95.70;;;;;;5078521;28;20482;-46
2022/01/21 04:52:41;;;;;;;11.13;4.10;;;2.90;95.60;;;;;;5075486;28;20490;-46
2022/01/21 04:55:09;;;;;;;6.30;4.27;;;2.90;95.30;;;;;;5075653;28;20538;-46
2022/01/21 04:57:37;;;;;;;5.70;3.13;;;2.90;95.50;;;;;;5068090;28;20569;-46
2022/01/21 05:00:06;;;;;;;14.30;4.37;;;2.90;95.30;;;;;;5075427;28;20555;-46
2022/01/21 05:02:34;;;;;;;13.27;6.50;;;2.90;95.30;;;;;;5076240;28;20485;-46
2022/01/21 05:05:02;;;;;;;11.27;3.60;;;2.90;95.40;;;;;;5076197;28;20500;-46
2022/01/21 05:07:33;;;;;;;16.60;3.80;;;2.90;95.30;;;;;;5083688;28;20473;-46
2022/01/21 05:10:02;;;;;;;17.57;5.07;;;2.90;95.30;;;;;;5065983;28;20484;-46
2022/01/21 05:12:29;;;;;;;26.07;6.90;;;2.80;95.20;;;;;;5074407;28;20840;-46
2022/01/21 05:15:11;;;;;;;18.63;4.43;;;2.70;95.30;;;;;;5074747;28;20589;-46
2022/01/21 05:17:44;;;;;;;7.10;4.47;;;2.70;95.30;;;;;;5064652;28;20484;-46
2022/01/21 05:20:11;;;;;;;18.53;4.80;;;2.70;95.40;;;;;;5067404;28;20584;-46
2022/01/21 05:22:40;;;;;;;16.63;4.70;;;2.70;95.40;;;;;;5077993;28;20540;-46
2022/01/21 05:25:07;;;;;;;10.10;4.00;;;2.60;95.50;;;;;;5075158;28;20484;-46
2022/01/21 05:27:34;;;;;;;8.70;4.87;;;2.60;95.50;;;;;;5072219;28;21095;-46
2022/01/21 05:30:01;;;;;;;13.93;4.20;;;2.60;95.50;;;;;;5076580;28;20485;-46
2022/01/21 05:32:28;;;;;;;10.53;5.17;;;2.60;95.40;;;;;;5072426;28;20481;-46
2022/01/21 05:34:54;;;;;;;17.90;5.30;;;2.70;95.40;;;;;;5083308;28;20481;-46
2022/01/21 05:37:21;;;;;;;16.73;5.30;;;2.70;95.50;;;;;;5058964;28;20530;-46
2022/01/21 05:39:50;;;;;;;18.50;4.67;;;2.60;95.40;;;;;;5104678;28;20890;-48
2022/01/21 05:42:16;;;;;;;6.23;4.03;;;2.60;95.40;;;;;;5080787;28;20498;-46
2022/01/21 05:47:28;;;;;;;12.40;4.83;;;2.50;95.70;;;;;;5078312;28;20852;-46
2022/01/21 05:49:54;;;;;;;12.40;4.57;;;2.50;95.60;;;;;;5078125;28;20485;-46
2022/01/21 05:52:28;;;;;;;10.93;5.87;;;2.40;96.00;;;;;;5085096;28;20489;-46
2022/01/21 05:54:56;;;;;;;7.77;3.43;;;2.30;95.90;;;;;;5062918;28;20472;-46
2022/01/21 05:57:23;;;;;;;5.33;3.67;;;2.30;96.30;;;;;;5068644;28;20482;-46
2022/01/21 05:59:50;;;;;;;17.83;2.10;;;2.20;96.10;;;;;;5092679;28;20464;-45
2022/01/21 06:02:17;;;;;;;10.20;4.40;;;2.30;96.30;;;;;;5097064;28;20477;-45
2022/01/21 06:04:49;;;;;;;13.97;4.80;;;2.40;96.30;;;;;;5082601;28;20530;-46
2022/01/21 06:07:16;;;;;;;18.23;3.40;;;2.50;96.30;;;;;;5082124;28;20616;-45
2022/01/21 06:09:43;;;;;;;9.83;4.10;;;2.50;96.10;;;;;;5083689;28;20470;-45
2022/01/21 06:12:12;;;;;;;6.00;2.63;;;2.50;96.00;;;;;;5082528;28;20484;-46
2022/01/21 06:14:39;;;;;;;21.70;4.40;;;2.50;96.10;;;;;;5082210;28;20472;-45
2022/01/21 06:17:08;;;;;;;13.60;5.10;;;2.60;96.30;;;;;;5080168;28;20929;-46
2022/01/21 06:19:34;;;;;;;17.20;3.70;;;2.70;96.20;;;;;;5080907;28;20988;-46
2022/01/21 06:22:01;;;;;;;11.73;2.70;;;2.80;96.00;;;;;;5074846;28;20481;-45
2022/01/21 06:24:28;;;;;;;15.43;4.10;;;2.80;95.90;;;;;;5081834;28;20497;-46
2022/01/21 06:26:59;;;;;;;10.27;4.30;;;2.80;96.00;;;;;;5087178;28;21102;-46
2022/01/21 06:29:28;;;;;;;11.57;4.53;;;2.80;95.90;;;;;;5069924;28;20490;-46
2022/01/21 06:31:55;;;;;;;8.30;3.40;;;2.90;95.90;;;;;;5078033;28;20477;-46
2022/01/21 06:34:22;;;;;;;12.93;7.47;;;2.90;96.00;;;;;;5074394;28;20481;-46
2022/01/21 06:36:48;;;;;;;10.73;4.07;;;3.00;95.90;;;;;;5081785;27;20823;-46
2022/01/21 06:39:15;;;;;;;12.00;5.30;;;2.90;95.90;;;;;;5091947;27;20490;-46
2022/01/21 06:41:44;;;;;;;20.40;6.17;;;2.90;96.00;;;;;;5077882;28;20482;-47
2022/01/21 06:44:11;;;;;;;9.60;5.07;;;3.00;96.00;;;;;;5084002;28;20478;-46
2022/01/21 06:46:39;;;;;;;151.47;20.07;;;;;;;;;;5074892;28;20488;-46
2022/01/21 06:49:06;;;;;;;125.43;13.77;;;;;;;;;;5063859;28;20543;-46
2022/01/21 06:51:34;;;;;;;259.47;23.97;;;;;;;;;;5059990;28;20530;-46
2022/01/21 06:54:01;;;;;;;169.43;18.87;;;;;;;;;;5083100;28;20531;-46
2022/01/21 06:56:28;;;;;;;363.53;33.17;;;;;;;;;;5074556;28;20528;-46
2022/01/21 06:58:55;;;;;;;93.20;11.00;;;;;;;;;;5074358;28;20491;-47
2022/01/21 07:01:22;;;;;;;257.87;23.27;;;;;;;;;;5075474;28;20485;-46
2022/01/21 07:03:51;;;;;;;116.63;13.77;;;;;;;;;;5076839;28;20872;-46
2022/01/21 07:06:18;;;;;;;158.00;16.57;;;;;;;;;;5069137;28;20570;-46
2022/01/21 07:08:44;;;;;;;105.57;12.13;;;3.10;96.00;;;;;;5080377;28;20466;-46
2022/01/21 07:11:11;;;;;;;48.77;8.60;;;2.90;95.80;;;;;;5087037;28;20527;-48
2022/01/21 07:13:38;;;;;;;99.23;14.17;;;;;;;;;;5066564;28;20485;-46
2022/01/21 07:16:05;;;;;;;79.47;12.60;;;3.10;96.00;;;;;;5085137;28;20558;-46
2022/01/21 07:18:32;;;;;;;81.23;14.93;;;3.10;95.70;;;;;;5068398;28;20485;-47
2022/01/21 07:21:01;;;;;;;53.40;8.63;;;;;;;;;;5076848;28;20906;-45
2022/01/21 07:23:28;;;;;;;309.87;30.67;;;;;;;;;;5080337;28;20529;-46
2022/01/21 07:25:55;;;;;;;99.93;11.00;;;;;;;;;;5069238;28;20490;-46
2022/01/21 07:28:22;;;;;;;96.30;17.63;;;;;;;;;;5094473;28;20493;-46
2022/01/21 07:30:49;;;;;;;22.67;7.83;;;3.00;96.20;;;;;;5076682;28;20597;-46
2022/01/21 07:33:16;;;;;;;34.23;8.10;;;3.00;96.00;;;;;;5100490;27;20536;-46
2022/01/21 07:35:43;;;;;;;29.87;8.47;;;3.00;96.20;;;;;;5086697;27;20481;-46
2022/01/21 07:38:11;;;;;;;105.43;9.87;;;;;;;;;;5083858;28;20485;-46
2022/01/21 07:40:38;;;;;;;76.60;13.33;;;3.00;96.20;;;;;;5077695;28;20489;-46
2022/01/21 07:43:05;;;;;;;138.40;15.67;;;;;;;;;;5071206;28;20968;-46
2022/01/21 07:45:32;;;;;;;189.80;22.73;;;3.00;96.10;;;;;;5073121;28;20474;-46
2022/01/21 07:47:59;;;;;;;44.93;8.57;;;2.80;96.30;;;;;;5080427;28;20483;-46
2022/01/21 07:50:26;;;;;;;63.40;15.60;;;2.80;96.40;;;;;;5077521;28;20512;-46
2022/01/21 07:52:52;;;;;;;61.40;13.60;;;2.90;96.60;;;;;;5080092;28;20479;-46
2022/01/21 07:55:20;;;;;;;26.43;7.60;;;3.00;96.50;;;;;;5078855;28;21061;-46
2022/01/21 07:57:47;;;;;;;13.37;4.77;;;3.10;96.40;;;;;;5085291;27;20476;-46
2022/01/21 08:00:15;;;;;;;17.70;10.67;;;3.20;96.20;;;;;;5073035;27;20474;-46
2022/01/21 08:02:41;;;;;;;18.00;5.90;;;3.30;96.10;;;;;;5075530;28;20485;-46
2022/01/21 08:05:09;;;;;;;21.67;4.83;;;3.30;96.20;;;;;;5071012;28;20483;-46
2022/01/21 08:07:36;;;;;;;7.37;3.70;;;3.40;96.10;;;;;;5088012;28;20875;-46
2022/01/21 08:10:03;;;;;;;10.33;4.00;;;3.50;96.00;;;;;;5071714;28;21004;-46
2022/01/21 08:12:31;;;;;;;16.30;5.20;;;3.50;95.80;;;;;;5072510;28;20493;-46
2022/01/21 08:14:58;;;;;;;15.20;6.17;;;3.50;95.80;;;;;;5070847;28;20815;-46
2022/01/21 08:17:24;;;;;;;19.70;5.67;;;3.50;95.80;;;;;;5067469;28;21001;-46
2022/01/21 08:19:51;;;;;;;10.33;4.03;;;3.50;95.90;;;;;;5070467;28;20479;-46
2022/01/21 08:22:18;;;;;;;8.87;4.00;;;3.50;95.90;;;;;;5063745;28;20543;-46
2022/01/21 08:24:44;;;;;;;14.20;6.00;;;3.60;95.90;;;;;;5058230;28;20477;-46
2022/01/21 08:27:11;;;;;;;9.47;3.97;;;3.60;95.90;;;;;;5058731;28;21008;-46
2022/01/21 08:29:39;;;;;;;10.70;4.50;;;3.60;95.80;;;;;;5062686;28;20716;-46
2022/01/21 08:32:08;;;;;;;16.47;4.93;;;3.70;95.70;;;;;;5072715;28;20944;-46
2022/01/21 08:34:35;;;;;;;6.50;3.97;;;3.70;95.80;;;;;;5058041;28;20531;-46
2022/01/21 08:37:02;;;;;;;8.03;4.20;;;3.80;95.80;;;;;;5059420;28;20822;-46
2022/01/21 08:39:29;;;;;;;10.67;4.50;;;3.90;95.80;;;;;;5051950;27;20786;-46
2022/01/21 08:41:55;;;;;;;7.93;4.70;;;3.90;95.70;;;;;;5087793;27;20547;-46
2022/01/21 08:44:22;;;;;;;16.23;5.20;;;3.90;95.60;;;;;;5055235;28;20968;-46
2022/01/21 08:46:50;;;;;;;17.73;5.00;;;4.00;95.60;;;;;;5060490;28;20481;-46
2022/01/21 08:49:19;;;;;;;9.00;3.83;;;4.00;95.80;;;;;;5059052;28;20485;-46
2022/01/21 08:51:51;;;;;;;15.07;5.97;;;4.00;95.80;;;;;;5064483;28;20488;-47
2022/01/21 08:54:18;;;;;;;20.23;4.77;;;4.00;95.50;;;;;;5083199;27;20546;-46
2022/01/21 08:56:47;;;;;;;14.70;4.67;;;4.10;95.70;;;;;;5084887;27;21322;-46
2022/01/21 08:59:14;;;;;;;8.80;4.53;;;;;;;;;;5051688;28;20514;-46
2022/01/21 09:01:41;;;;;;;18.20;4.53;;;4.10;95.60;;;;;;5058752;28;20474;-46
2022/01/21 09:04:09;;;;;;;13.73;4.13;;;4.10;95.60;;;;;;5061818;28;20481;-46
2022/01/21 09:06:36;;;;;;;11.67;7.03;;;4.20;95.70;;;;;;5062201;28;20532;-46
2022/01/21 09:09:03;;;;;;;19.57;5.60;;;4.20;95.40;;;;;;5063655;28;20482;-46
2022/01/21 09:11:30;;;;;;;13.83;6.57;;;4.30;95.70;;;;;;5059376;28;20474;-46
2022/01/21 09:13:58;;;;;;;13.17;5.53;;;4.40;95.60;;;;;;5053610;28;20486;-46
2022/01/21 09:16:25;;;;;;;13.37;5.80;;;4.50;95.40;;;;;;5052187;28;20494;-46
2022/01/21 09:18:55;;;;;;;10.70;4.93;;;4.60;95.20;;;;;;5087882;27;21103;-46
2022/01/21 09:21:24;;;;;;;8.57;5.10;;;5.00;95.60;;;;;;5053051;28;20971;-47
2022/01/21 09:23:52;;;;;;;9.87;3.97;;;5.10;95.10;;;;;;5051076;28;20810;-46
2022/01/21 09:26:20;;;;;;;17.97;4.17;;;5.40;95.20;;;;;;5066220;28;20493;-46
2022/01/21 09:28:48;;;;;;;21.77;4.80;;;6.00;94.90;;;;;;5065556;28;20484;-46
2022/01/21 09:31:16;;;;;;;12.43;4.47;;;6.30;94.10;;;;;;5066606;28;20485;-46
2022/01/21 09:33:43;;;;;;;11.77;4.90;;;6.50;94.00;;;;;;5060395;28;20528;-46
2022/01/21 09:36:12;;;;;;;18.23;4.73;;;6.50;93.80;;;;;;5059250;27;20480;-47
2022/01/21 09:38:40;;;;;;;12.43;4.10;;;6.50;93.60;;;;;;5070286;28;20953;-47
2022/01/21 09:41:09;;;;;;;11.53;4.37;;;6.30;93.20;;;;;;5071401;28;20884;-46
2022/01/21 09:43:38;;;;;;;17.23;5.50;;;6.20;93.40;;;;;;5060989;28;21317;-46
2022/01/21 09:46:07;;;;;;;18.80;4.83;;;6.20;93.60;;;;;;5099656;27;20569;-47
2022/01/21 09:48:48;;;;;;;10.70;3.87;;;6.00;93.40;;;;;;5070107;27;20503;-46
2022/01/21 09:51:16;;;;;;;8.00;3.20;;;6.00;93.90;;;;;;5057470;28;20554;-46
2022/01/21 09:53:44;;;;;;;6.80;3.00;;;6.00;93.70;;;;;;5056009;28;21051;-46
2022/01/21 09:56:14;;;;;;;14.30;4.00;;;6.00;93.90;;;;;;5096574;27;20495;-47
2022/01/21 09:58:43;;;;;;;11.00;3.50;;;6.10;94.50;;;;;;5069061;28;20940;-46
2022/01/21 10:01:10;;;;;;;9.70;3.60;;;6.20;93.80;;;;;;5067428;28;20793;-46
2022/01/21 10:03:41;;;;;;;14.40;4.30;;;6.20;94.00;;;;;;5068845;28;20962;-45
2022/01/21 10:06:08;;;;;;;13.30;6.40;;;6.30;93.90;;;;;;5060623;27;21023;-46
2022/01/21 10:08:38;;;;;;;18.67;6.80;;;6.20;93.60;;;;;;5075916;27;20934;-46
2022/01/21 10:11:06;;;;;;;12.13;7.07;;;6.20;93.70;;;;;;5065863;28;20992;-46
2022/01/21 10:13:35;;;;;;;12.57;6.40;;;6.30;93.80;;;;;;5079704;27;21183;-46
2022/01/21 10:16:03;;;;;;;12.57;5.50;;;6.40;94.50;;;;;;5079619;27;20498;-46
2022/01/21 10:18:29;;;;;;;17.03;4.67;;;6.40;93.30;;;;;;5078428;27;20493;-46
2022/01/21 10:20:58;;;;;;;11.50;4.63;;;6.40;93.40;;;;;;5063716;28;20955;-45
2022/01/21 10:23:25;;;;;;;12.63;5.00;;;6.50;93.90;;;;;;5059884;28;20718;-46
2022/01/21 10:26:01;;;;;;;11.60;4.50;;;6.50;93.50;;;;;;5067543;28;21090;-45
2022/01/21 10:28:30;;;;;;;7.83;4.63;;;6.80;93.60;;;;;;5064488;28;20597;-46
2022/01/21 10:31:14;;;;;;;16.97;6.67;;;7.10;93.90;;;;;;5063465;28;20480;-46
2022/01/21 10:33:44;;;;;;;16.23;5.87;;;7.30;94.30;;;;;;5087398;27;20986;-45
2022/01/21 10:36:16;;;;;;;18.13;4.97;;;7.70;93.80;;;;;;5060317;28;20499;-45
2022/01/21 10:38:45;;;;;;;16.77;6.37;;;7.90;93.30;;;;;;5066034;28;20485;-45
2022/01/21 10:41:14;;;;;;;8.63;4.87;;;8.10;93.40;;;;;;5070423;28;21065;-45
2022/01/21 10:43:42;;;;;;;15.40;5.43;;;8.20;93.50;;;;;;5078597;27;20995;-45
2022/01/21 10:46:14;;;;;;;13.10;4.97;;;8.40;93.20;;;;;;5073706;28;20529;-45
2022/01/21 10:49:01;;;;;;;24.47;8.10;;;8.60;93.10;;;;;;5064651;28;20980;-45
2022/01/21 10:51:30;;;;;;;10.77;3.63;;;8.70;91.90;;;;;;5067355;28;20481;-46
2022/01/21 10:53:59;;;;;;;16.13;4.60;;;8.60;91.30;;;;;;5062149;28;21061;-45
2022/01/21 10:56:29;;;;;;;16.50;4.70;;;8.40;91.50;;;;;;5064824;28;21238;-47
2022/01/21 10:58:59;;;;;;;15.80;4.50;;;8.10;91.20;;;;;;5066515;28;20470;-45
2022/01/21 11:01:29;;;;;;;9.47;5.10;;;8.00;91.50;;;;;;5061606;28;21138;-46
2022/01/21 11:04:04;;;;;;;13.13;3.67;;;7.90;92.00;;;;;;5079309;27;20468;-45
2022/01/21 11:06:44;;;;;;;11.90;4.40;;;7.80;92.10;;;;;;5078962;27;20489;-46
2022/01/21 11:09:18;;;;;;;6.80;3.07;;;7.70;92.00;;;;;;5069653;27;20478;-46
2022/01/21 11:11:46;;;;;;;14.30;4.97;;;7.50;91.80;;;;;;5075796;27;20529;-45
2022/01/21 11:14:16;;;;;;;6.83;4.10;;;7.40;92.40;;;;;;5061821;27;20477;-46
2022/01/21 11:16:45;;;;;;;20.10;5.20;;;7.30;92.40;;;;;;5078462;27;20550;-46
2022/01/21 11:19:16;;;;;;;11.73;4.10;;;7.30;92.30;;;;;;5052087;28;20543;-45
2022/01/21 11:21:48;;;;;;;12.97;6.80;;;7.30;92.20;;;;;;5062823;28;20907;-46
2022/01/21 11:24:17;;;;;;;21.13;6.20;;;7.30;92.60;;;;;;5063152;28;20576;-46
2022/01/21 11:26:44;;;;;;;12.00;4.43;;;7.40;92.60;;;;;;5058888;28;20834;-46
2022/01/21 11:29:12;;;;;;;14.93;5.97;;;7.40;92.90;;;;;;5057169;28;20472;-46
2022/01/21 11:31:40;;;;;;;25.10;5.07;;;7.40;92.40;;;;;;5060061;28;20833;-46
2022/01/21 11:34:07;;;;;;;16.97;4.90;;;7.40;92.40;;;;;;5063388;28;20533;-45
2022/01/21 11:36:34;;;;;;;11.37;4.40;;;7.40;92.30;;;;;;5067191;27;20837;-46
2022/01/21 11:39:01;;;;;;;15.97;6.20;;;7.50;92.20;;;;;;5075059;27;20477;-46
2022/01/21 11:41:29;;;;;;;10.77;4.70;;;7.50;92.70;;;;;;5070985;27;21055;-46
2022/01/21 11:44:01;;;;;;;15.43;4.43;;;7.40;92.40;;;;;;5072267;27;20602;-46
2022/01/21 11:46:59;;;;;;;10.43;2.90;;;7.40;92.10;;;;;;5076864;27;20480;-45
2022/01/21 11:49:28;;;;;;;10.03;4.77;;;7.40;91.90;;;;;;5056949;27;20916;-46
2022/01/21 11:52:19;;;;;;;3.33;1.90;;;7.30;91.60;;;;;;5072710;27;20471;-46
2022/01/21 11:54:46;;;;;;;13.17;4.17;;;7.10;91.90;;;;;;5063818;27;22114;-45
2022/01/21 11:57:14;;;;;;;40.90;21.83;;;7.00;91.50;;;;;;5068674;27;20847;-45
2022/01/21 11:59:50;;;;;;;7.40;4.83;;;7.00;92.10;;;;;;5059408;28;20491;-46
2022/01/21 12:02:21;;;;;;;16.20;4.30;;;6.90;91.50;;;;;;5071936;27;20981;-45
2022/01/21 12:04:51;;;;;;;10.30;4.40;;;6.80;92.00;;;;;;5074002;27;21490;-46
2022/01/21 12:07:45;;;;;;;14.20;5.90;;;6.80;92.70;;;;;;5064351;28;20488;-46
2022/01/21 12:10:12;;;;;;;8.83;5.07;;;6.70;92.40;;;;;;5051340;28;20512;-46
2022/01/21 12:13:03;;;;;;;16.37;4.60;;;6.70;92.80;;;;;;5053170;28;20589;-46
2022/01/21 12:15:53;;;;;;;26.17;9.73;;;6.60;92.50;;;;;;5041348;28;21020;-46
2022/01/21 12:18:39;;;;;;;17.13;9.70;;;6.80;93.00;;;;;;5051364;28;20476;-46
2022/01/21 12:21:26;;;;;;;21.33;7.10;;;6.80;92.90;;;;;;5055608;28;20840;-46
2022/01/21 12:23:53;;;;;;;34.17;11.17;;;6.80;92.40;;;;;;5054176;28;20911;-46
2022/01/21 12:26:21;;;;;;;70.43;14.80;;;6.90;92.00;;;;;;5054688;28;20541;-46
2022/01/21 12:29:23;;;;;;;60.77;13.73;;;7.00;91.90;;;;;;5064509;28;21061;-46
2022/01/21 12:31:56;;;;;;;5.33;2.67;;;7.00;91.70;;;;;;5055792;28;20556;-47
2022/01/21 12:34:23;;;;;;;3.30;2.30;;;7.00;92.30;;;;;;5064832;28;20636;-46
2022/01/21 12:36:53;;;;;;;13.23;3.00;;;7.10;92.30;;;;;;5066865;27;20521;-46
2022/01/21 12:39:37;;;;;;;136.00;22.40;;;7.20;92.00;;;;;;5063454;27;20583;-46
2022/01/21 12:42:24;;;;;;;305.80;30.27;;;11.30;93.40;;;;;;5043534;28;20531;-46
2022/01/21 12:44:53;;;;;;;95.77;19.83;;;7.40;92.30;;;;;;5055756;28;20528;-46
2022/01/21 12:47:40;;;;;;;275.03;31.10;;;7.30;91.50;;;;;;5063108;28;20555;-45
2022/01/21 12:50:16;;;;;;;67.87;15.57;;;7.20;91.20;;;;;;5052460;28;21060;-46
2022/01/21 12:52:53;;;;;;;317.43;33.27;;;;;;;;;;5051112;28;20569;-46
2022/01/21 12:58:12;;;;;;;226.77;25.70;;;7.10;91.50;;;;;;5081031;27;21093;-45
2022/01/21 13:00:40;;;;;;;236.07;26.50;;;7.10;91.90;;;;;;5058155;28;20492;-45
2022/01/21 13:03:14;;;;;;;57.10;14.10;;;7.10;91.60;;;;;;5081343;27;20480;-46
2022/01/21 13:05:44;;;;;;;35.57;10.73;;;7.00;91.90;;;;;;5070414;27;21106;-45
2022/01/21 13:08:27;;;;;;;63.87;14.43;;;7.00;91.70;;;;;;5072703;28;20477;-45
2022/01/21 13:10:53;;;;;;;26.00;9.07;;;7.00;91.80;;;;;;5066628;28;21141;-46
2022/01/21 13:13:34;;;;;;;46.27;13.83;;;6.90;91.60;;;;;;5059085;28;20492;-45
2022/01/21 13:16:01;;;;;;;56.87;14.63;;;6.90;91.80;;;;;;5069870;28;20483;-46
2022/01/21 13:18:31;;;;;;;76.73;18.83;;;6.90;92.00;;;;;;5062523;27;21048;-45
2022/01/21 13:21:00;;;;;;;277.67;29.97;;;7.00;91.70;;;;;;5087447;27;20864;-45
2022/01/21 13:23:39;;;;;;;401.77;41.07;;;;;;;;;;5068762;28;20473;-45
2022/01/21 13:26:14;;;;;;;43.83;12.27;;;7.00;91.80;;;;;;5070829;28;20562;-45
2022/01/21 13:28:54;;;;;;;23.13;5.20;;;7.00;92.10;;;;;;5071353;28;20893;-45
2022/01/21 13:31:21;;;;;;;13.97;2.53;;;7.10;91.90;;;;;;5070295;28;20541;-45
2022/01/21 13:33:49;;;;;;;4.20;2.73;;;7.10;91.80;;;;;;5081927;27;20540;-45
2022/01/21 13:36:36;;;;;;;5.10;3.23;;;;;;;;;;5081686;27;20476;-45
2022/01/21 13:39:11;;;;;;;16.33;3.97;;;7.20;91.70;;;;;;5056082;28;20518;-46
2022/01/21 13:42:03;;;;;;;9.47;3.80;;;7.30;92.10;;;;;;5061746;28;20574;-47
2022/01/21 13:44:37;;;;;;;8.80;3.17;;;7.40;92.00;;;;;;5040745;27;21179;-45
2022/01/21 13:47:06;;;;;;;8.43;4.03;;;7.40;91.60;;;;;;5073502;28;20474;-45
2022/01/21 13:49:33;;;;;;;15.83;3.80;;;7.30;91.30;;;;;;5066751;28;20903;-46
2022/01/21 13:52:03;;;;;;;8.23;2.87;;;7.40;91.60;;;;;;5069326;28;20960;-46
2022/01/21 13:54:34;;;;;;;15.63;3.33;;;7.50;92.00;;;;;;5071381;28;20478;-46
2022/01/21 13:57:02;;;;;;;11.13;3.10;;;7.60;92.10;;;;;;5070159;28;20484;-46
2022/01/21 13:59:29;;;;;;;4.30;2.90;;;7.80;92.00;;;;;;5072929;28;20561;-45